VIR106F KSEA-EGLL
Flight info
| Callsign | VIR106F |
|---|---|
| Flight time | N/A |
| Altitude | 37000 |
| Route | ALPSE DCT YDC DCT ROMRA DCT 57N110W 62N100W 6530N09000W 6730N08000W/N0466F390 6830N07000W/M080F390 DCT BOPUT DCT 69N060W 68N050W 67N040W 65N030W 62N020W DCT GOMUP/N0447F390 DCT GINGA DCT KELLY L10 WAL UY53 NUGRA |
| Aircraft | A339/H-SADE1E2E3GHIJ3J5M1P2RWXY/LB2D1 |
Departure
| Time | 2026-05-03 23:08 |
|---|---|
| Airport | Seattle–Tacoma International Airport (KSEA) |
Arrival
| Time | N/A |
|---|---|
| Airport | London Heathrow Airport (EGLL) |
| Time | Latitude | Longitude | Altitude | Speed | Heading |
|---|---|---|---|---|---|
| 2026-05-03 22:41 | 47.43920 | -122.30338 | 434 ft | 0 kts | 144° |
| 2026-05-03 22:54 | 47.43926 | -122.30343 | 434 ft | 2 kts | 153° |
| 2026-05-03 22:55 | 47.43940 | -122.30351 | 434 ft | 2 kts | 169° |
| 2026-05-03 22:55 | 47.43955 | -122.30353 | 434 ft | 2 kts | 184° |
| 2026-05-03 22:55 | 47.43969 | -122.30349 | 434 ft | 2 kts | 200° |
| 2026-05-03 22:55 | 47.43983 | -122.30339 | 434 ft | 2 kts | 216° |
| 2026-05-03 22:56 | 47.43994 | -122.30325 | 434 ft | 2 kts | 231° |
| 2026-05-03 22:56 | 47.44002 | -122.30306 | 434 ft | 2 kts | 238° |
| 2026-05-03 22:56 | 47.44011 | -122.30288 | 434 ft | 2 kts | 235° |
| 2026-05-03 22:56 | 47.44019 | -122.30270 | 434 ft | 2 kts | 235° |
| 2026-05-03 22:57 | 47.44026 | -122.30257 | 434 ft | 0 kts | 235° |
| 2026-05-03 22:57 | 47.44025 | -122.30257 | 434 ft | 0 kts | 235° |
| 2026-05-03 22:59 | 47.44024 | -122.30259 | 434 ft | 1 kts | 235° |
| 2026-05-03 22:59 | 47.44012 | -122.30288 | 434 ft | 5 kts | 240° |
| 2026-05-03 23:00 | 47.43995 | -122.30353 | 434 ft | 8 kts | 256° |
| 2026-05-03 23:00 | 47.43989 | -122.30448 | 434 ft | 10 kts | 272° |
| 2026-05-03 23:00 | 47.43992 | -122.30567 | 434 ft | 12 kts | 278° |
| 2026-05-03 23:00 | 47.44058 | -122.30638 | 434 ft | 13 kts | 359° |
| 2026-05-03 23:01 | 47.44159 | -122.30637 | 434 ft | 15 kts | 0° |
| 2026-05-03 23:01 | 47.44268 | -122.30636 | 434 ft | 16 kts | 1° |
| 2026-05-03 23:01 | 47.44385 | -122.30634 | 434 ft | 17 kts | 0° |
| 2026-05-03 23:01 | 47.44508 | -122.30634 | 434 ft | 18 kts | 0° |
| 2026-05-03 23:02 | 47.44613 | -122.30627 | 434 ft | 4 kts | 24° |
| 2026-05-03 23:02 | 47.44610 | -122.30602 | 434 ft | 4 kts | 147° |
| 2026-05-03 23:02 | 47.44563 | -122.30619 | 434 ft | 9 kts | 200° |
| 2026-05-03 23:02 | 47.44486 | -122.30633 | 434 ft | 12 kts | 180° |
| 2026-05-03 23:03 | 47.44385 | -122.30634 | 434 ft | 16 kts | 181° |
| 2026-05-03 23:03 | 47.44264 | -122.30635 | 434 ft | 18 kts | 180° |
| 2026-05-03 23:03 | 47.44132 | -122.30637 | 434 ft | 19 kts | 181° |
| 2026-05-03 23:03 | 47.43991 | -122.30639 | 434 ft | 20 kts | 180° |
| 2026-05-03 23:04 | 47.43845 | -122.30640 | 434 ft | 21 kts | 180° |
| 2026-05-03 23:04 | 47.43694 | -122.30641 | 434 ft | 21 kts | 180° |
| 2026-05-03 23:04 | 47.43556 | -122.30565 | 434 ft | 17 kts | 161° |
| 2026-05-03 23:04 | 47.43457 | -122.30567 | 434 ft | 13 kts | 176° |
| 2026-05-03 23:05 | 47.43356 | -122.30563 | 434 ft | 15 kts | 180° |
| 2026-05-03 23:05 | 47.43241 | -122.30573 | 434 ft | 16 kts | 198° |
| 2026-05-03 23:05 | 47.43173 | -122.30698 | 434 ft | 16 kts | 265° |
| 2026-05-03 23:05 | 47.43235 | -122.30804 | 434 ft | 14 kts | 354° |
| 2026-05-03 23:06 | 47.43299 | -122.30806 | 434 ft | 0 kts | 1° |
| 2026-05-03 23:06 | 47.43308 | -122.30806 | 434 ft | 9 kts | 1° |
| 2026-05-03 23:07 | 47.43603 | -122.30804 | 434 ft | 74 kts | 1° |
| 2026-05-03 23:07 | 47.44325 | -122.30796 | 434 ft | 130 kts | 0° |
| 2026-05-03 23:07 | 47.45380 | -122.30787 | 483 ft | 170 kts | 359° |
| 2026-05-03 23:07 | 47.46602 | -122.30788 | 939 ft | 177 kts | 360° |
| 2026-05-03 23:08 | 47.47821 | -122.30789 | 1617 ft | 174 kts | 1° |
| 2026-05-03 23:08 | 47.48995 | -122.30776 | 2290 ft | 169 kts | 1° |
| 2026-05-03 23:08 | 47.50196 | -122.30776 | 2575 ft | 181 kts | 359° |
| 2026-05-03 23:08 | 47.51514 | -122.30830 | 2841 ft | 195 kts | 359° |
| 2026-05-03 23:09 | 47.52911 | -122.30897 | 3097 ft | 210 kts | 358° |
| 2026-05-03 23:09 | 47.54428 | -122.30984 | 3380 ft | 226 kts | 354° |
| 2026-05-03 23:09 | 47.56005 | -122.31596 | 3668 ft | 244 kts | 335° |
| 2026-05-03 23:09 | 47.57495 | -122.32923 | 3985 ft | 260 kts | 327° |
| 2026-05-03 23:10 | 47.59009 | -122.34482 | 4542 ft | 267 kts | 326° |
| 2026-05-03 23:10 | 47.60431 | -122.36194 | 5174 ft | 270 kts | 314° |
| 2026-05-03 23:10 | 47.61546 | -122.38454 | 5812 ft | 273 kts | 300° |
| 2026-05-03 23:10 | 47.62428 | -122.40961 | 6455 ft | 276 kts | 298° |
| 2026-05-03 23:11 | 47.63321 | -122.43454 | 7075 ft | 278 kts | 307° |
| 2026-05-03 23:11 | 47.64758 | -122.45289 | 7660 ft | 279 kts | 336° |
| 2026-05-03 23:11 | 47.66637 | -122.45927 | 8278 ft | 280 kts | 359° |
| 2026-05-03 23:11 | 47.68592 | -122.45937 | 8915 ft | 282 kts | 360° |
| 2026-05-03 23:12 | 47.70541 | -122.45953 | 9532 ft | 285 kts | 359° |
| 2026-05-03 23:12 | 47.72532 | -122.45985 | 10150 ft | 287 kts | 359° |
| 2026-05-03 23:12 | 47.74557 | -122.46050 | 10532 ft | 299 kts | 359° |
| 2026-05-03 23:12 | 47.76670 | -122.46148 | 10805 ft | 315 kts | 359° |
| 2026-05-03 23:13 | 47.78914 | -122.46256 | 11180 ft | 326 kts | 359° |
| 2026-05-03 23:13 | 47.81196 | -122.46297 | 11755 ft | 330 kts | 6° |
| 2026-05-03 23:13 | 47.83358 | -122.45243 | 12336 ft | 332 kts | 33° |
| 2026-05-03 23:13 | 47.85210 | -122.43201 | 12991 ft | 333 kts | 39° |
| 2026-05-03 23:14 | 47.86998 | -122.41069 | 13608 ft | 336 kts | 39° |
| 2026-05-03 23:14 | 47.88856 | -122.38895 | 14246 ft | 338 kts | 38° |
| 2026-05-03 23:14 | 47.90702 | -122.36794 | 14873 ft | 340 kts | 37° |
| 2026-05-03 23:14 | 47.92598 | -122.34679 | 15458 ft | 343 kts | 37° |
| 2026-05-03 23:15 | 47.94511 | -122.32572 | 16030 ft | 346 kts | 36° |
| 2026-05-03 23:15 | 47.96466 | -122.30433 | 16606 ft | 349 kts | 36° |
| 2026-05-03 23:15 | 47.98421 | -122.28301 | 17194 ft | 351 kts | 36° |
| 2026-05-03 23:15 | 48.00395 | -122.26151 | 17764 ft | 354 kts | 36° |
| 2026-05-03 23:16 | 48.02391 | -122.23978 | 18365 ft | 356 kts | 36° |
| 2026-05-03 23:16 | 48.04393 | -122.21799 | 18902 ft | 359 kts | 36° |
| 2026-05-03 23:16 | 48.06417 | -122.19594 | 19446 ft | 362 kts | 36° |
| 2026-05-03 23:16 | 48.08431 | -122.17397 | 20013 ft | 364 kts | 36° |
| 2026-05-03 23:17 | 48.10478 | -122.15160 | 20566 ft | 366 kts | 36° |
| 2026-05-03 23:17 | 48.12563 | -122.12878 | 21109 ft | 369 kts | 35° |
| 2026-05-03 23:17 | 48.14633 | -122.10614 | 21646 ft | 371 kts | 36° |
| 2026-05-03 23:17 | 48.16658 | -122.08288 | 22138 ft | 374 kts | 38° |
| 2026-05-03 23:18 | 48.18612 | -122.05734 | 22624 ft | 376 kts | 41° |
| 2026-05-03 23:18 | 48.20553 | -122.03094 | 23089 ft | 379 kts | 41° |
| 2026-05-03 23:18 | 48.22506 | -122.00423 | 23534 ft | 382 kts | 41° |
| 2026-05-03 23:18 | 48.24470 | -121.97733 | 23990 ft | 385 kts | 41° |
| 2026-05-03 23:19 | 48.26448 | -121.95026 | 24451 ft | 386 kts | 41° |
| 2026-05-03 23:19 | 48.28428 | -121.92314 | 24908 ft | 388 kts | 41° |
| 2026-05-03 23:19 | 48.30421 | -121.89580 | 25337 ft | 390 kts | 41° |
| 2026-05-03 23:19 | 48.32424 | -121.86835 | 25773 ft | 391 kts | 41° |
| 2026-05-03 23:20 | 48.34429 | -121.84081 | 26208 ft | 392 kts | 41° |
| 2026-05-03 23:20 | 48.36448 | -121.81308 | 26597 ft | 394 kts | 41° |
| 2026-05-03 23:20 | 48.38471 | -121.78527 | 26992 ft | 395 kts | 41° |
| 2026-05-03 23:20 | 48.40496 | -121.75738 | 27346 ft | 398 kts | 41° |
| 2026-05-03 23:21 | 48.42533 | -121.72930 | 27717 ft | 399 kts | 41° |
| 2026-05-03 23:21 | 48.44569 | -121.70121 | 28086 ft | 400 kts | 41° |
| 2026-05-03 23:21 | 48.46616 | -121.67293 | 28433 ft | 402 kts | 41° |
| 2026-05-03 23:21 | 48.48675 | -121.64445 | 28764 ft | 404 kts | 41° |